createdAt,value
2022-09-05T00:00:01.173Z,99.993896
2022-09-05T00:01:09.831Z,99.993896
2022-09-05T00:02:18.447Z,99.993896
2022-09-05T00:03:28.417Z,99.993896
2022-09-05T00:04:36.870Z,99.993896
2022-09-05T00:05:50.963Z,99.993896
2022-09-05T00:06:57.088Z,99.993896
2022-09-05T00:08:05.726Z,99.993896
2022-09-05T00:09:15.380Z,99.993896
2022-09-05T00:10:25.055Z,99.993896
2022-09-05T00:11:42.310Z,99.993896
2022-09-05T00:12:45.371Z,99.993896
2022-09-05T00:13:54.036Z,99.993896
2022-09-05T00:15:15.412Z,99.993896
2022-09-05T00:16:14.437Z,99.993896
2022-09-05T00:17:23.054Z,99.993896
2022-09-05T00:19:46.554Z,99.993896
2022-09-05T00:22:51.306Z,99.993896
2022-09-05T00:24:17.914Z,99.993896
2022-09-05T00:24:23.532Z,99.993896
2022-09-05T00:24:23.956Z,99.993896
2022-09-05T00:24:42.009Z,99.993896
2022-09-05T00:25:38.260Z,99.993896
2022-09-05T00:26:50.367Z,99.993896
2022-09-05T00:27:57.082Z,99.993896
2022-09-05T00:29:06.786Z,99.993896
2022-09-05T00:31:06.265Z,99.993896
2022-09-05T00:31:52.158Z,99.993896
2022-09-05T00:32:38.831Z,99.993896
2022-09-05T00:33:47.439Z,99.993896
2022-09-05T00:34:56.116Z,99.993896
2022-09-05T00:36:05.780Z,99.993896
2022-09-05T00:37:15.423Z,99.993896
2022-09-05T00:38:26.257Z,99.993896
2022-09-05T00:39:32.758Z,99.993896
2022-09-05T00:40:42.470Z,99.993896
2022-09-05T00:41:51.126Z,99.993896
2022-09-05T00:42:59.798Z,99.993896
2022-09-05T00:44:08.505Z,99.993896
2022-09-05T00:45:19.654Z,99.993896
2022-09-05T00:46:27.956Z,99.993896
2022-09-05T00:47:37.572Z,99.993896
2022-09-05T00:48:46.210Z,99.993896
2022-09-05T00:49:55.880Z,99.993896
2022-09-05T00:51:04.542Z,99.993896
2022-09-05T00:52:14.254Z,99.993896
2022-09-05T00:53:23.023Z,99.993896
2022-09-05T00:54:40.849Z,99.993896
2022-09-05T00:55:42.293Z,99.993896
2022-09-05T00:56:49.951Z,99.993896
2022-09-05T00:57:59.715Z,99.993896
2022-09-05T00:59:08.391Z,99.993896
2022-09-05T01:00:18.061Z,99.993896
2022-09-05T01:01:25.822Z,99.993896
2022-09-05T01:02:37.952Z,99.993896
2022-09-05T01:03:44.130Z,99.993896
2022-09-05T01:04:53.807Z,99.993896
2022-09-05T01:06:02.465Z,99.993896
2022-09-05T01:07:11.176Z,99.993896
2022-09-05T01:08:21.832Z,99.993896
2022-09-05T01:09:31.536Z,99.993896
2022-09-05T01:10:41.191Z,99.993896
2022-09-05T01:11:49.856Z,99.993896
2022-09-05T01:12:58.494Z,99.993896
2022-09-05T01:14:09.169Z,99.993896
2022-09-05T01:15:17.820Z,99.993896
2022-09-05T01:16:24.635Z,99.993896
2022-09-05T01:17:34.233Z,99.993896
2022-09-05T01:18:42.882Z,99.993896
2022-09-05T01:19:51.555Z,99.993896
2022-09-05T01:21:01.224Z,99.993896
2022-09-05T01:22:09.887Z,99.993896
2022-09-05T01:23:19.584Z,99.993896
2022-09-05T01:24:30.295Z,99.993896
2022-09-05T01:25:40.391Z,99.993896
2022-09-05T01:26:50.658Z,99.993896
2022-09-05T01:28:11.281Z,99.993896
2022-09-05T01:29:14.730Z,99.993896
2022-09-05T01:30:20.589Z,99.993896
2022-09-05T01:31:30.262Z,99.993896
2022-09-05T01:32:39.928Z,99.993896
2022-09-05T01:33:48.593Z,99.993896
2022-09-05T01:34:57.239Z,99.993896
2022-09-05T01:36:06.920Z,99.993896
2022-09-05T01:37:25.005Z,99.993896
2022-09-05T01:38:26.229Z,99.993896
2022-09-05T01:40:01.762Z,99.993896
2022-09-05T01:40:48.280Z,99.993896
2022-09-05T01:41:56.146Z,99.993896
2022-09-05T01:43:04.820Z,99.993896
2022-09-05T01:44:12.507Z,99.993896
2022-09-05T01:45:22.198Z,99.993896
2022-09-05T01:46:32.931Z,99.993896
2022-09-05T01:47:41.587Z,99.993896
2022-09-05T01:48:50.261Z,99.993896
2022-09-05T01:50:00.775Z,99.993896
2022-09-05T01:51:28.504Z,99.993896
2022-09-05T01:52:21.200Z,99.993896
2022-09-05T01:53:30.907Z,99.993896
2022-09-05T01:54:38.599Z,99.993896
2022-09-05T01:56:01.988Z,99.993896
2022-09-05T01:56:58.923Z,99.993896
2022-09-05T01:58:07.581Z,99.993896
2022-09-05T01:59:16.238Z,99.993896
2022-09-05T02:00:24.892Z,99.993896
2022-09-05T02:01:34.646Z,99.993896
2022-09-05T02:02:48.911Z,99.993896
2022-09-05T02:03:54.885Z,99.993896
2022-09-05T02:05:03.561Z,99.993896
2022-09-05T02:06:13.210Z,99.993896
2022-09-05T02:07:30.764Z,99.993896
2022-09-05T02:08:32.637Z,99.993896
2022-09-05T02:09:41.325Z,99.993896
2022-09-05T02:10:50.063Z,99.993896
2022-09-05T02:11:59.831Z,99.993896
2022-09-05T02:13:08.587Z,99.993896
2022-09-05T02:14:24.472Z,99.993896
2022-09-05T02:15:28.927Z,99.993896
2022-09-05T02:16:37.527Z,99.993896
2022-09-05T02:17:50.281Z,99.993896
2022-09-05T02:18:56.873Z,99.993896
2022-09-05T02:20:05.524Z,99.993896
2022-09-05T02:21:15.204Z,99.993896
2022-09-05T02:22:22.888Z,99.993896
2022-09-05T02:23:41.449Z,99.993896
2022-09-05T02:24:42.298Z,99.993896
2022-09-05T02:26:02.148Z,99.993896
2022-09-05T02:27:02.600Z,99.993896
2022-09-05T02:28:12.288Z,99.993896
2022-09-05T02:29:28.761Z,99.993896
2022-09-05T02:30:32.629Z,99.993896
2022-09-05T02:31:41.340Z,99.993896
2022-09-05T02:32:49.960Z,99.993896
2022-09-05T02:34:01.817Z,99.993896
2022-09-05T02:35:08.302Z,99.993896
2022-09-05T02:36:19.032Z,99.993896
2022-09-05T02:38:38.079Z,99.993896
2022-09-05T02:39:22.706Z,99.993896
2022-09-05T02:41:58.789Z,99.993896
2022-09-05T02:45:00.157Z,99.993896
2022-09-05T02:45:04.944Z,99.993896
2022-09-05T02:45:05.045Z,99.993896
2022-09-05T02:45:05.685Z,99.993896
2022-09-05T02:45:42.299Z,99.993896
2022-09-05T02:46:51.149Z,99.993896
2022-09-05T02:47:58.609Z,99.993896
2022-09-05T02:49:21.681Z,99.993896
2022-09-05T02:51:17.230Z,99.993896
2022-09-05T02:53:25.110Z,99.993896
2022-09-05T02:57:15.697Z,99.993896
2022-09-05T02:57:30.659Z,99.993896
2022-09-05T02:57:31.362Z,99.993896
2022-09-05T02:57:47.629Z,99.993896
2022-09-05T02:57:47.788Z,99.993896
2022-09-05T02:58:53.536Z,99.993896
2022-09-05T02:59:45.158Z,99.993896
2022-09-05T03:00:52.824Z,99.993896
2022-09-05T03:02:05.702Z,99.993896
2022-09-05T03:03:13.172Z,99.993896
2022-09-05T03:04:21.776Z,99.993896
2022-09-05T03:05:30.475Z,99.993896
2022-09-05T03:06:39.124Z,99.993896
2022-09-05T03:07:48.798Z,99.993896
2022-09-05T03:08:57.483Z,99.993896
2022-09-05T03:10:06.140Z,99.993896
2022-09-05T03:11:15.838Z,99.993896
2022-09-05T03:12:29.052Z,99.993896
2022-09-05T03:13:34.146Z,99.993896
2022-09-05T03:14:43.814Z,99.993896
2022-09-05T03:15:52.497Z,99.993896
2022-09-05T03:17:03.234Z,99.993896
2022-09-05T03:18:19.947Z,99.993896
2022-09-05T03:19:19.511Z,99.993896
2022-09-05T03:20:29.211Z,99.993896
2022-09-05T03:21:37.892Z,99.993896
2022-09-05T03:22:45.583Z,99.993896
2022-09-05T03:23:54.267Z,99.993896
2022-09-05T03:25:02.955Z,99.993896
2022-09-05T03:26:12.656Z,99.993896
2022-09-05T03:27:20.306Z,99.993896
2022-09-05T03:28:31.002Z,99.993896
2022-09-05T03:29:40.678Z,99.993896
2022-09-05T03:30:49.410Z,99.993896
2022-09-05T03:31:58.018Z,99.993896
2022-09-05T03:33:06.701Z,99.993896
2022-09-05T03:34:15.389Z,99.993896
2022-09-05T03:35:25.089Z,99.993896
2022-09-05T03:36:32.757Z,99.993896
2022-09-05T03:37:40.430Z,99.993896
2022-09-05T03:38:50.074Z,99.993896
2022-09-05T03:40:00.820Z,99.993896
2022-09-05T03:41:08.369Z,99.993896
2022-09-05T03:42:17.017Z,99.993896
2022-09-05T03:43:25.781Z,99.993896
2022-09-05T03:44:35.464Z,99.993896
2022-09-05T03:45:44.246Z,99.993896
2022-09-05T03:46:51.856Z,99.993896
2022-09-05T03:48:06.335Z,99.993896
2022-09-05T03:49:22.957Z,99.993896
2022-09-05T03:52:34.042Z,99.993896
2022-09-05T03:54:22.972Z,99.993896
2022-09-05T03:56:47.379Z,99.993896
2022-09-05T03:57:09.993Z,99.993896
2022-09-05T03:57:10.044Z,99.993896
2022-09-05T03:57:10.201Z,99.993896
2022-09-05T03:57:41.263Z,99.993896
2022-09-05T03:58:55.736Z,99.993896
2022-09-05T03:59:47.890Z,99.993896
2022-09-05T04:01:07.673Z,99.993896
2022-09-05T04:02:59.956Z,99.993896
2022-09-05T04:07:54.756Z,99.993896
2022-09-05T04:08:11.736Z,99.993896
2022-09-05T04:08:11.740Z,99.993896
2022-09-05T04:08:11.976Z,99.993896
2022-09-05T04:08:12.096Z,99.993896
2022-09-05T04:09:11.242Z,99.993896
2022-09-05T04:10:21.893Z,99.993896
2022-09-05T04:11:30.519Z,99.993896
2022-09-05T04:12:40.192Z,99.993896
2022-09-05T04:13:48.875Z,99.993896
2022-09-05T04:14:59.559Z,99.993896
2022-09-05T04:16:07.259Z,99.993896
2022-09-05T04:17:15.869Z,99.993896
2022-09-05T04:18:25.903Z,99.993896
2022-09-05T04:19:35.160Z,99.993896
2022-09-05T04:20:43.831Z,99.993896
2022-09-05T04:21:53.494Z,99.993896
2022-09-05T04:23:02.190Z,99.993896
2022-09-05T04:24:11.856Z,99.993896
2022-09-05T04:25:20.547Z,99.993896
2022-09-05T04:26:28.258Z,99.993896
2022-09-05T04:27:38.038Z,99.993896
2022-09-05T04:28:53.474Z,99.993896
2022-09-05T04:29:58.401Z,99.993896
2022-09-05T04:31:07.081Z,99.993896
2022-09-05T04:32:18.566Z,99.993896
2022-09-05T04:33:35.889Z,99.993896
2022-09-05T04:34:37.102Z,99.993896
2022-09-05T04:35:46.791Z,99.993896
2022-09-05T04:36:56.448Z,99.993896
2022-09-05T04:38:05.304Z,99.993896
2022-09-05T04:39:14.065Z,99.993896
2022-09-05T04:40:22.775Z,99.993896
2022-09-05T04:41:36.548Z,99.993896
2022-09-05T04:42:43.148Z,99.993896
2022-09-05T04:43:50.855Z,99.993896
2022-09-05T04:44:59.513Z,99.993896
2022-09-05T04:46:09.263Z,99.993896
2022-09-05T04:47:18.848Z,99.993896
2022-09-05T04:48:28.502Z,99.993896
2022-09-05T04:49:37.221Z,99.993896
2022-09-05T04:50:45.898Z,99.993896
2022-09-05T04:52:00.037Z,99.993896
2022-09-05T04:53:05.261Z,99.993896
2022-09-05T04:54:13.982Z,99.993896
2022-09-05T04:55:23.646Z,99.993896
2022-09-05T04:56:32.343Z,99.993896
2022-09-05T04:57:41.059Z,99.993896
2022-09-05T04:58:50.789Z,99.993896
2022-09-05T05:00:57.694Z,99.993896
2022-09-05T05:04:52.146Z,99.993896
2022-09-05T05:05:17.966Z,99.993896
2022-09-05T05:06:06.261Z,99.993896
2022-09-05T05:06:06.459Z,99.993896
2022-09-05T05:06:07.167Z,99.993896
2022-09-05T05:07:06.160Z,99.993896
2022-09-05T05:08:15.158Z,99.993896
2022-09-05T05:09:24.601Z,99.993896
2022-09-05T05:12:19.810Z,99.993896
2022-09-05T05:15:10.145Z,99.993896
2022-09-05T05:17:07.587Z,99.993896
2022-09-05T05:18:04.528Z,99.993896
2022-09-05T05:18:04.537Z,99.993896
2022-09-05T05:18:05.051Z,99.993896
2022-09-05T05:18:05.097Z,99.993896
2022-09-05T05:18:59.221Z,99.993896
2022-09-05T05:20:41.060Z,99.993896
2022-09-05T05:21:10.282Z,99.993896
2022-09-05T05:22:18.952Z,99.993896
2022-09-05T05:23:27.608Z,99.993896
2022-09-05T05:24:36.303Z,99.993896
2022-09-05T05:25:45.956Z,99.993896
2022-09-05T05:26:55.908Z,99.993896
2022-09-05T05:28:08.943Z,99.993896
2022-09-05T05:29:19.362Z,99.884033
2022-09-05T05:30:25.636Z,99.884033
2022-09-05T05:31:34.419Z,99.578857
2022-09-05T05:32:45.446Z,99.578857
2022-09-05T05:33:52.684Z,99.884033
2022-09-05T05:35:02.306Z,99.987793
2022-09-05T05:36:11.057Z,99.780273
2022-09-05T05:37:20.718Z,99.780273
2022-09-05T05:38:30.371Z,99.780273
2022-09-05T05:39:38.167Z,99.682617
2022-09-05T05:40:50.706Z,99.884033
2022-09-05T05:41:57.428Z,99.993896
2022-09-05T05:43:08.077Z,99.737549
2022-09-05T05:44:16.749Z,99.633789
2022-09-05T05:45:26.462Z,99.737549
2022-09-05T05:46:35.168Z,99.835205
2022-09-05T05:47:43.882Z,99.688721
2022-09-05T05:48:57.183Z,99.584961
2022-09-05T05:50:01.152Z,99.182129
2022-09-05T05:51:11.816Z,98.876953
2022-09-05T05:52:20.558Z,98.773193
2022-09-05T05:53:40.988Z,98.974609
2022-09-05T05:54:39.888Z,98.675537
2022-09-05T05:55:52.583Z,98.730469
2022-09-05T05:56:59.184Z,98.931885
2022-09-05T05:58:08.829Z,99.035645
2022-09-05T05:59:22.550Z,99.133301
2022-09-05T06:00:29.185Z,99.237061
2022-09-05T06:01:39.878Z,99.188232
2022-09-05T06:02:50.650Z,99.188232
2022-09-05T06:04:00.191Z,99.084473
2022-09-05T06:05:08.887Z,98.7854
2022-09-05T06:06:17.535Z,98.535156
2022-09-05T06:07:26.194Z,98.431396
2022-09-05T06:09:03.646Z,98.22998
2022-09-05T06:12:38.808Z,98.028564
2022-09-05T06:14:53.538Z,97.88208
2022-09-05T06:14:53.681Z,98.028564
2022-09-05T06:14:53.987Z,98.028564
2022-09-05T06:14:54.459Z,97.979736
2022-09-05T06:15:40.674Z,98.284912
2022-09-05T06:16:49.360Z,97.77832
2022-09-05T06:17:59.024Z,97.77832
2022-09-05T06:19:07.702Z,98.083496
2022-09-05T06:22:07.902Z,98.64502
2022-09-05T06:22:08.084Z,98.236084
2022-09-05T06:22:38.876Z,98.236084
2022-09-05T06:23:48.555Z,98.034668
2022-09-05T06:24:58.706Z,97.937012
2022-09-05T06:26:07.823Z,97.43042
2022-09-05T06:27:17.481Z,96.97876
2022-09-05T06:28:26.175Z,96.875
2022-09-05T06:29:38.511Z,96.472168
2022-09-05T06:30:46.458Z,96.42334
2022-09-05T06:31:57.201Z,95.617676
2022-09-05T06:33:06.829Z,95.513916
2022-09-05T06:34:26.627Z,95.715332
2022-09-05T06:35:26.308Z,95.513916
2022-09-05T06:36:37.239Z,95.166016
2022-09-05T06:37:45.921Z,94.86084
2022-09-05T06:38:54.578Z,94.561768
2022-09-05T06:40:04.385Z,94.561768
2022-09-05T06:41:13.965Z,94.152832
2022-09-05T06:42:30.745Z,94.213867
2022-09-05T06:43:34.320Z,93.707275
2022-09-05T06:44:43.974Z,93.707275
2022-09-05T06:45:58.790Z,93.4021
2022-09-05T06:47:22.577Z,94.268799
2022-09-05T06:48:15.751Z,93.963623
2022-09-05T06:49:28.715Z,94.024658
2022-09-05T06:50:39.466Z,92.303467
2022-09-05T06:51:46.283Z,91.351318
2022-09-05T06:52:56.225Z,91.455078
2022-09-05T06:54:05.853Z,91.107178
2022-09-05T06:55:15.514Z,90.863037
2022-09-05T06:56:25.428Z,90.155029
2022-09-05T06:57:31.855Z,90.41748
2022-09-05T06:58:42.523Z,89.105225
2022-09-05T06:59:51.158Z,88.562012
2022-09-05T07:00:59.982Z,87.854004
2022-09-05T07:02:09.728Z,88.421631
2022-09-05T07:03:18.282Z,87.414551
2022-09-05T07:05:14.989Z,87.512207
2022-09-05T07:05:40.326Z,88.317871
2022-09-05T07:07:01.384Z,87.774658
2022-09-05T07:08:00.778Z,87.371826
2022-09-05T07:09:11.594Z,88.476562
2022-09-05T07:10:37.751Z,87.872314
2022-09-05T07:11:31.780Z,86.05957
2022-09-05T07:12:41.462Z,86.364746
2022-09-05T07:13:51.126Z,87.127686
2022-09-05T07:15:08.274Z,87.426758
2022-09-05T07:16:09.467Z,87.023926
2022-09-05T07:17:19.119Z,86.181641
2022-09-05T07:18:28.786Z,85.577393
2022-09-05T07:19:38.479Z,85.577393
2022-09-05T07:21:06.757Z,85.137939
2022-09-05T07:21:58.799Z,83.728027
2022-09-05T07:23:16.916Z,83.886719
2022-09-05T07:24:39.113Z,83.789062
2022-09-05T07:25:30.297Z,83.746338
2022-09-05T07:26:52.356Z,83.209229
2022-09-05T07:28:27.194Z,82.403564
2022-09-05T07:29:00.821Z,82.305908
2022-09-05T07:30:10.520Z,82.446289
2022-09-05T07:31:26.385Z,82.641602
2022-09-05T07:32:30.833Z,82.946777
2022-09-05T07:33:38.512Z,83.148193
2022-09-05T07:34:47.201Z,82.745361
2022-09-05T07:35:56.887Z,83.349609
2022-09-05T07:37:14.466Z,82.702637
2022-09-05T07:38:16.207Z,82.702637
2022-09-05T07:39:29.000Z,82.60498
2022-09-05T07:40:33.501Z,83.306885
2022-09-05T07:41:43.171Z,82.568359
2022-09-05T07:43:08.687Z,82.525635
2022-09-05T07:44:00.497Z,82.324219
2022-09-05T07:45:10.176Z,80.682373
2022-09-05T07:46:19.865Z,80.181885
2022-09-05T07:47:28.500Z,80.383301
2022-09-05T07:48:37.156Z,80.944824
2022-09-05T07:49:51.911Z,80.34668
2022-09-05T07:51:36.109Z,80.609131
2022-09-05T07:54:56.261Z,79.504395
2022-09-05T07:55:20.481Z,78.967285
2022-09-05T07:56:57.317Z,78.466797
2022-09-05T07:56:57.561Z,78.668213
2022-09-05T07:57:20.640Z,79.56543
2022-09-05T07:58:01.408Z,79.064941
2022-09-05T07:59:11.076Z,78.729248
2022-09-05T08:00:26.317Z,77.593994
2022-09-05T08:01:30.487Z,76.953125
2022-09-05T08:02:45.426Z,76.654053
2022-09-05T08:03:51.782Z,76.452637
2022-09-05T08:04:59.491Z,75.12207
2022-09-05T08:06:09.122Z,75.921631
2022-09-05T08:07:48.454Z,76.220703
2022-09-05T08:08:27.405Z,74.621582
2022-09-05T08:10:07.342Z,74.621582
2022-09-05T08:11:23.134Z,76.019287
2022-09-05T08:12:02.286Z,75.250244
2022-09-05T08:13:23.154Z,75.213623
2022-09-05T08:14:38.611Z,74.475098
2022-09-05T08:15:39.712Z,72.747803
2022-09-05T08:16:40.074Z,71.948242
2022-09-05T08:17:49.778Z,72.949219
2022-09-05T08:18:59.463Z,73.944092
2022-09-05T08:20:09.321Z,72.015381
2022-09-05T08:21:18.778Z,71.417236
2022-09-05T08:22:29.415Z,70.721436
2022-09-05T08:23:38.085Z,71.350098
2022-09-05T08:24:47.781Z,71.252441
2022-09-05T08:25:57.922Z,71.588135
2022-09-05T08:27:10.060Z,72.216797
2022-09-05T08:28:17.780Z,73.815918
2022-09-05T08:29:26.444Z,72.814941
2022-09-05T08:30:36.260Z,72.949219
2022-09-05T08:31:44.961Z,72.454834
2022-09-05T08:32:56.201Z,73.254395
2022-09-05T08:34:05.250Z,74.810791
2022-09-05T08:35:14.889Z,73.278809
2022-09-05T08:36:22.574Z,72.283936
2022-09-05T08:37:31.236Z,71.588135
2022-09-05T08:38:41.258Z,72.381592
2022-09-05T08:39:50.651Z,71.75293
2022-09-05T08:41:01.275Z,71.252441
2022-09-05T08:42:09.992Z,70.751953
2022-09-05T08:44:02.755Z,71.350098
2022-09-05T08:46:38.217Z,71.118164
2022-09-05T08:46:45.241Z,71.813965
2022-09-05T08:46:52.561Z,70.88623
2022-09-05T08:48:01.369Z,70.385742
2022-09-05T08:49:11.591Z,70.153809
2022-09-05T08:50:21.650Z,70.08667
2022-09-05T08:51:31.302Z,69.75708
2022-09-05T08:52:41.957Z,68.103027
2022-09-05T08:53:50.962Z,66.61377
2022-09-05T08:55:06.398Z,68.432617
2022-09-05T08:56:11.068Z,67.999268
2022-09-05T08:57:19.704Z,65.716553
2022-09-05T08:58:29.408Z,67.901611
2022-09-05T08:59:37.074Z,66.082764
2022-09-05T09:00:50.498Z,64.990234
2022-09-05T09:02:13.785Z,64.794922
2022-09-05T09:03:09.629Z,64.398193
2022-09-05T09:04:31.221Z,65.19165
2022-09-05T09:05:51.926Z,66.479492
2022-09-05T09:06:39.634Z,65.527344
2022-09-05T09:07:51.782Z,65.093994
2022-09-05T09:09:03.453Z,62.988281
2022-09-05T09:10:08.613Z,62.915039
2022-09-05T09:11:19.292Z,65.29541
2022-09-05T09:12:27.949Z,64.276123
2022-09-05T09:13:36.606Z,62.29248
2022-09-05T09:14:46.289Z,63.250732
2022-09-05T09:15:56.029Z,63.220215
2022-09-05T09:17:05.638Z,62.103271
2022-09-05T09:18:14.320Z,62.072754
2022-09-05T09:19:26.492Z,60.070801
2022-09-05T09:20:34.654Z,61.846924
2022-09-05T09:21:43.308Z,59.405518
2022-09-05T09:22:52.996Z,60.424805
2022-09-05T09:24:01.664Z,61.309814
2022-09-05T09:25:14.651Z,61.083984
2022-09-05T09:26:22.458Z,60.662842
2022-09-05T09:27:54.216Z,58.361816
2022-09-05T09:28:49.196Z,58.221436
2022-09-05T09:29:53.972Z,61.053467
2022-09-05T09:31:02.735Z,61.749268
2022-09-05T09:32:11.367Z,58.752441
2022-09-05T09:33:20.106Z,58.728027
2022-09-05T09:34:29.718Z,58.728027
2022-09-05T09:35:40.361Z,58.795166
2022-09-05T09:36:49.083Z,58.47168
2022-09-05T09:37:59.505Z,58.343506
2022-09-05T09:39:11.997Z,57.037354
2022-09-05T09:40:19.194Z,56.842041
2022-09-05T09:41:27.780Z,56.219482
2022-09-05T09:42:37.432Z,55.883789
2022-09-05T09:43:52.667Z,56.921387
2022-09-05T09:44:57.718Z,58.557129
2022-09-05T09:46:07.431Z,58.825684
2022-09-05T09:47:15.086Z,59.191895
2022-09-05T09:48:25.852Z,56.304932
2022-09-05T09:49:33.404Z,54.925537
2022-09-05T09:50:45.197Z,55.810547
2022-09-05T09:51:53.739Z,57.165527
2022-09-05T09:53:03.403Z,57.232666
2022-09-05T09:54:12.078Z,57.037354
2022-09-05T09:55:21.730Z,57.110596
2022-09-05T09:56:32.372Z,55.212402
2022-09-05T09:57:40.185Z,55.603027
2022-09-05T09:58:47.860Z,56.292725
2022-09-05T09:59:57.507Z,56.658936
2022-09-05T10:01:20.216Z,55.773926
2022-09-05T10:02:32.825Z,55.969238
2022-09-05T10:05:15.276Z,55.871582
2022-09-05T10:07:19.899Z,55.212402
2022-09-05T10:10:09.993Z,55.114746
2022-09-05T10:10:37.027Z,56.402588
2022-09-05T10:10:37.404Z,56.500244
2022-09-05T10:10:37.588Z,54.772949
2022-09-05T10:10:37.664Z,54.943848
2022-09-05T10:11:53.362Z,56.176758
2022-09-05T10:12:55.235Z,55.487061
2022-09-05T10:14:03.341Z,56.695557
2022-09-05T10:15:23.256Z,56.207275
2022-09-05T10:16:24.677Z,56.37207
2022-09-05T10:17:33.320Z,56.939697
2022-09-05T10:18:42.980Z,56.121826
2022-09-05T10:20:09.822Z,55.212402
2022-09-05T10:21:15.906Z,55.084229
2022-09-05T10:23:23.657Z,53.68042
2022-09-05T10:24:33.275Z,54.107666
2022-09-05T10:25:41.978Z,56.5979
2022-09-05T10:26:51.696Z,55.273438
2022-09-05T10:28:01.384Z,56.286621
2022-09-05T10:29:37.273Z,58.526611
2022-09-05T10:30:25.360Z,59.033203
2022-09-05T10:32:08.917Z,57.13501
2022-09-05T10:34:20.347Z,55.065918
2022-09-05T10:35:12.683Z,56.054688
2022-09-05T10:35:20.431Z,57.629395
2022-09-05T10:36:17.239Z,56.121826
2022-09-05T10:37:23.553Z,52.380371
2022-09-05T10:38:32.739Z,54.25415
2022-09-05T10:39:42.035Z,55.041504
2022-09-05T10:41:14.626Z,55.633545
2022-09-05T10:42:03.388Z,56.616211
2022-09-05T10:43:10.953Z,54.815674
2022-09-05T10:44:19.744Z,55.731201
2022-09-05T10:45:30.163Z,56.195068
2022-09-05T10:46:50.534Z,54.797363
2022-09-05T10:47:50.782Z,56.500244
2022-09-05T10:48:59.444Z,56.402588
2022-09-05T10:50:08.253Z,56.47583
2022-09-05T10:51:27.017Z,56.054688
2022-09-05T10:52:28.501Z,57.403564
2022-09-05T10:53:38.964Z,55.310059
2022-09-05T10:54:44.794Z,55.578613
2022-09-05T10:55:55.533Z,53.387451
2022-09-05T10:57:04.203Z,54.077148
2022-09-05T10:58:13.883Z,54.174805
2022-09-05T11:00:45.821Z,55.718994
2022-09-05T11:02:19.740Z,53.55835
2022-09-05T11:02:25.420Z,53.851318
2022-09-05T11:02:56.220Z,52.722168
2022-09-05T11:04:03.358Z,54.644775
2022-09-05T11:05:13.078Z,55.212402
2022-09-05T11:06:24.953Z,56.066895
2022-09-05T11:07:30.272Z,54.663086
2022-09-05T11:08:38.954Z,53.192139
2022-09-05T11:09:48.631Z,53.094482
2022-09-05T11:10:59.284Z,52.178955
2022-09-05T11:12:07.948Z,52.178955
2022-09-05T11:13:17.668Z,54.516602
2022-09-05T11:14:27.447Z,52.941895
2022-09-05T11:15:37.019Z,52.130127
2022-09-05T11:16:47.678Z,50.78125
2022-09-05T11:17:57.320Z,52.032471
2022-09-05T11:19:06.025Z,51.934814
2022-09-05T11:20:16.333Z,51.446533
2022-09-05T11:21:26.313Z,51.049805
2022-09-05T11:22:34.988Z,51.544189
2022-09-05T11:23:46.718Z,52.79541
2022-09-05T11:24:54.343Z,52.301025
2022-09-05T11:26:03.054Z,51.391602
2022-09-05T11:27:24.106Z,50.610352
2022-09-05T11:28:21.370Z,50.415039
2022-09-05T11:29:31.030Z,49.6521
2022-09-05T11:30:39.698Z,51.318359
2022-09-05T11:32:25.398Z,51.885986
2022-09-05T11:36:25.955Z,50.317383
2022-09-05T11:38:35.521Z,52.545166
2022-09-05T11:39:49.453Z,50.268555
2022-09-05T11:39:49.609Z,51.464844
2022-09-05T11:39:49.623Z,51.245117
2022-09-05T11:40:00.895Z,51.928711
2022-09-05T11:40:27.230Z,50.634766
2022-09-05T11:41:15.511Z,50.170898
2022-09-05T11:42:25.287Z,51.049805
2022-09-05T11:43:34.961Z,50.268555
2022-09-05T11:44:44.643Z,50.952148
2022-09-05T11:45:54.372Z,50.537109
2022-09-05T11:47:27.159Z,49.578857
2022-09-05T11:48:14.689Z,49.456787
2022-09-05T11:49:24.377Z,50.146484
2022-09-05T11:50:34.076Z,49.627686
2022-09-05T11:51:41.732Z,50.195312
2022-09-05T11:52:50.440Z,48.895264
2022-09-05T11:54:00.156Z,48.895264
2022-09-05T11:55:08.822Z,48.016357
2022-09-05T11:56:18.545Z,47.375488
2022-09-05T11:57:33.030Z,47.790527
2022-09-05T11:58:49.597Z,50.042725
2022-09-05T12:00:08.196Z,49.139404
2022-09-05T12:01:34.988Z,48.480225
2022-09-05T12:02:23.199Z,48.577881
2022-09-05T12:03:56.521Z,48.962402
2022-09-05T12:04:40.744Z,49.578857
2022-09-05T12:07:02.117Z,50.585938
2022-09-05T12:08:12.790Z,50.537109
2022-09-05T12:09:23.481Z,49.89624
2022-09-05T12:10:38.583Z,49.871826
2022-09-05T12:11:43.172Z,49.359131
2022-09-05T12:12:51.468Z,49.041748
2022-09-05T12:14:00.146Z,49.11499
2022-09-05T12:15:11.451Z,46.862793
2022-09-05T12:16:20.549Z,47.357178
2022-09-05T12:17:35.152Z,45.440674
2022-09-05T12:18:39.911Z,46.44165
2022-09-05T12:19:50.587Z,47.814941
2022-09-05T12:20:59.333Z,47.717285
2022-09-05T12:22:10.325Z,47.888184
2022-09-05T12:23:25.402Z,48.651123
2022-09-05T12:25:15.397Z,48.33374
2022-09-05T12:27:37.860Z,48.114014
2022-09-05T12:27:43.497Z,47.723389
2022-09-05T12:28:15.253Z,46.405029
2022-09-05T12:29:28.585Z,45.257568
2022-09-05T12:30:25.158Z,45.941162
2022-09-05T12:32:00.334Z,46.5271
2022-09-05T12:33:52.431Z,45.666504
2022-09-05T12:36:09.010Z,46.356201
2022-09-05T12:36:09.128Z,47.235107
2022-09-05T12:38:45.130Z,45.666504
2022-09-05T12:39:30.248Z,44.98291
2022-09-05T12:39:42.760Z,45.568848
2022-09-05T12:40:46.267Z,45.080566
2022-09-05T12:41:40.076Z,45.666504
2022-09-05T12:41:48.044Z,50.610352
2022-09-05T12:42:20.625Z,46.063232
2022-09-05T12:43:49.764Z,47.003174
2022-09-05T12:44:40.530Z,47.711182
2022-09-05T12:45:42.863Z,48.345947
2022-09-05T12:46:50.061Z,49.822998
2022-09-05T12:47:59.742Z,48.669434
2022-09-05T12:49:10.420Z,48.370361
2022-09-05T12:50:19.097Z,49.108887
2022-09-05T12:51:44.958Z,48.76709
2022-09-05T12:52:37.562Z,48.156738
2022-09-05T12:53:47.263Z,49.041748
2022-09-05T12:54:57.192Z,47.253418
2022-09-05T12:56:45.915Z,47.613525
2022-09-05T12:59:15.990Z,48.400879
2022-09-05T13:00:26.232Z,48.10791
2022-09-05T13:03:00.031Z,47.741699
2022-09-05T13:03:00.077Z,47.198486
2022-09-05T13:03:10.031Z,48.449707
2022-09-05T13:03:27.365Z,46.838379
2022-09-05T13:04:23.893Z,45.715332
2022-09-05T13:05:29.979Z,46.081543
2022-09-05T13:06:39.785Z,46.179199
2022-09-05T13:07:48.363Z,46.374512
2022-09-05T13:08:59.032Z,48.016357
2022-09-05T13:10:47.532Z,46.063232
2022-09-05T13:12:08.778Z,45.452881
2022-09-05T13:14:51.891Z,45.819092
2022-09-05T13:14:52.230Z,44.744873
2022-09-05T13:15:05.816Z,45.916748
2022-09-05T13:16:01.089Z,45.721436
2022-09-05T13:17:10.684Z,45.623779